Killeen, TX

4:18 AM CDT on May 27, 2015 (GMT -0500)
Skylark Field | | Change Station
CLOSE
Current Station
Airport
Location: Killeen,
Elevation: 846 ft
Nearby Weather Stations

Elev 846 ft 31.09 °N, 97.69 °W | Updated 3 minutes ago

Overcast
Overcast
66 °F
Feels Like 66 °F
N
10
Wind Variable Wind from NNE
Gusts 24 mph

Today
High -- | Low -- °F
--% Chance of Precip.
Yesterday
High -- | Low -- °F
Precip. -- in
6:30 AM 8:28 PM
Waxing Gibbous, 65% visible
Pressure 30.06 in
Visibility 0.8 miles
Clouds Mostly Cloudy 600 ft
Overcast 1300 ft
Dew Point 63 °F
Humidity 88%
Rainfall 2.29 in
Snow Depth Not available.
UV 0 out of 12
Pollen 3.80 out of 12
Air Quality Not available.
Flu Activity Sporadic
METAR KILE 270915Z AUTO 02009G21KT 350V050 3/4SM TS BKN006 OVC013 19/17 A3006 RMK AO1 WSHFT 49 LTG DSNT ALQDS P0108

More Conditions Fewer Conditions

Pressure 30.06 in
Visibility 0.8 miles
Clouds Mostly Cloudy 600 ft
Overcast 1300 ft
Dew Point 63 °F
Humidity 88%
Rainfall 2.29 in
Snow Depth Not available.
UV 0 out of 12
Pollen 3.80 out of 12
Air Quality Not available.
Flu Activity Sporadic
METAR KILE 270915Z AUTO 02009G21KT 350V050 3/4SM TS BKN006 OVC013 19/17 A3006 RMK AO1 WSHFT 49 LTG DSNT ALQDS P0108

More Conditions Fewer Conditions

Nowcast | as of 3:13 am CDT on May 27, 2015

Scattered to numerous thunderstorms will move east across the region south of a line from Goldthwaite to Hillsboro to Greenville to Sulphur Springs. Cloud to ground lightning will accompany some of the storms. A few storms south of a Goldthwaite to Hamilton to Centerville line may produce wind gusts to 40 mph and small hail. Immediately to the north of the area of scattered showers and thunderstorms...some wind gusts of 30 to 40 mph out of the south will occur. Otherwise...skies will be mostly cloudy with temperatures remaining in the 60s to lower 70s through 8 am.

×

10-Day Weather Forecast

Almanac

Astronomy

May. 27, 2015 Rise Set
Actual Time
Civil Twilight
Nautical Twilight
Astronomical Twilight
Moon
Length of Visible Light
Length of Day
Tomorrow will be .
, % of the Moon is Illuminated

Today's Extremes

State Highs State Lows

Community

WunderPhotos

Upload Photos

1,824,634 photos uploaded!

WunderBlogs® & News

Nearby

Air Quality

  Air Quality AQ Index Pollutant
Not available.

Snow Depth

Station Depth Elevation

Earthquake Activity

City Distance Mag. Time & Date
Minimum magnitude displayed is 2.5.

Coastal Water Temperatures

Place Temperature

Stations

Nearby Weather Stations

Station Location Temp. Windchill Dew Point Humidity Wind Precip. Elev Updated Type